LFMU/BZR METAR and TAF weather

Enter ICAO airport designator
Station Type Date Time Source
LFMU METAR 2019/02/16 07:00 UTC NOAA

LFMU 160700Z AUTO 01004KT 320V080 9999 OVC015 03/00 Q1031 TEMPO 1200 BR VV///


Station Type Date Time Source
LFMU Decoded METAR 2019/02/16 07:00 UTC NOAA

Beziers / Vias, France (LFMU) 43-19N 003-21E
Feb 16, 2019 - 02:00 AM EST / 2019.02.16 0700 UTC
Wind: from the N (010 degrees) at 5 MPH (4 KT) (direction variable):0
Visibility: greater than 7 mile(s):0
Sky conditions: overcast
Temperature: 37 F (3 C)
Dew Point: 32 F (0 C)
Relative Humidity: 80%
Pressure (altimeter): 30.45 in. Hg (1031 hPa)
ob: LFMU 160700Z AUTO 01004KT 320V080 9999 OVC015 03/00 Q1031 TEMPO 1200 BR VV///
cycle: 7

Station Type Date Time Source
LFMU TAF 2019/02/16 03:24 UTC NOAA

TAF LFMU 160200Z 1603/1703 VRB03KT 9999 BKN025
TEMPO 1603/1610 1200 BR BKN006 PROB30
TEMPO 1603/1608 0200 FG VV///
BECMG 1612/1613 09010KT 1200 BR BKN010


Example: see airport list